LTBL/IGI METAR and TAF weather

Enter ICAO airport designator
Station Type Date Time Source
LTBL METAR 2020/03/31 05:50 UTC NOAA

LTBL 310550Z 00000KT 9999 FEW040 SCT100 BKN200 12/09 Q1009 NOSIG RMK RWY17 VRB02KT


Station Type Date Time Source
LTBL Decoded METAR 2020/03/31 05:50 UTC NOAA

Izmir / Cigli, Turkey (LTBL) 38-30N 027-01E 5M
Mar 31, 2020 - 01:50 AM EDT / 2020.03.31 0550 UTC
Wind: Calm:0
Visibility: greater than 7 mile(s):0
Sky conditions: mostly cloudy
Temperature: 53 F (12 C)
Dew Point: 48 F (9 C)
Relative Humidity: 81%
Pressure (altimeter): 29.80 in. Hg (1009 hPa)
ob: LTBL 310550Z 00000KT 9999 FEW040 SCT100 BKN200 12/09 Q1009 NOSIG RMK RWY17 VRB02KT
cycle: 6

Station Type Date Time Source
LTBL TAF UTC NOAA

Error!

Example: see airport list